Time;durP1;ratioP1;P1;durP2;ratioP2;P2;SDS_P1;SDS_P2;PMS_P1;PMS_P2;Temp;Humidity;BMP_temperature;BMP_pressure;BME280_temperature;BME280_humidity;BME280_pressure;Samples;Min_cycle;Max_cycle;Signal;HPM_P1;HPM_P2
2021/08/02 00:01:59;;;;;;;1.05;0.93;;;16.40;99.90;;;;;;4930367;29;20178;-77
2021/08/02 00:04:31;;;;;;;0.68;0.68;;;16.40;99.90;;;;;;4930186;29;20922;-79
2021/08/02 00:07:05;;;;;;;1.27;1.05;;;16.40;99.90;;;;;;4929297;29;20552;-78
2021/08/02 00:09:37;;;;;;;1.23;1.13;;;16.30;99.90;;;;;;4928834;29;20190;-78
2021/08/02 00:12:26;;;;;;;0.90;0.85;;;16.20;99.90;;;;;;4928756;29;20209;-77
2021/08/02 00:14:55;;;;;;;1.35;1.10;;;16.30;99.90;;;;;;4929842;29;20197;-77
2021/08/02 00:17:20;;;;;;;0.80;0.80;;;16.30;99.90;;;;;;4929891;29;20236;-77
2021/08/02 00:19:46;;;;;;;1.08;1.02;;;16.20;99.90;;;;;;4929953;29;20309;-78
2021/08/02 00:22:12;;;;;;;1.10;1.00;;;16.20;99.90;;;;;;4930021;29;20226;-77
2021/08/02 00:24:38;;;;;;;1.20;1.10;;;16.20;99.90;;;;;;4928275;29;20273;-78
2021/08/02 00:27:04;;;;;;;0.88;0.88;;;16.20;99.90;;;;;;4929525;29;20253;-77
2021/08/02 00:29:31;;;;;;;1.08;0.93;;;16.20;99.90;;;;;;4929514;29;20193;-78
2021/08/02 00:31:57;;;;;;;1.17;1.08;;;16.20;99.90;;;;;;4929270;29;20190;-77
2021/08/02 00:34:22;;;;;;;1.10;1.00;;;16.20;99.90;;;;;;4927883;29;20213;-77
2021/08/02 00:36:55;;;;;;;1.20;1.10;;;16.20;99.90;;;;;;4944385;29;20297;-79
2021/08/02 00:39:24;;;;;;;1.83;1.50;;;16.10;99.90;;;;;;4929424;29;20214;-77
2021/08/02 00:42:11;;;;;;;1.42;1.30;;;16.10;99.90;;;;;;4929864;29;20189;-81
2021/08/02 00:45:04;;;;;;;1.83;1.73;;;16.10;99.90;;;;;;4927836;29;20566;-78
2021/08/02 00:47:53;;;;;;;2.22;1.50;;;16.10;99.90;;;;;;4929738;29;20206;-78
2021/08/02 00:50:25;;;;;;;1.30;1.20;;;16.10;99.90;;;;;;4929729;29;20194;-78
2021/08/02 00:53:04;;;;;;;1.73;1.48;;;16.20;99.90;;;;;;4928297;29;20186;-77
2021/08/02 00:55:34;;;;;;;1.83;1.60;;;16.10;99.90;;;;;;4927767;29;20237;-77
2021/08/02 00:58:03;;;;;;;1.90;1.20;;;16.10;99.90;;;;;;4929037;29;20607;-78
2021/08/02 01:00:29;;;;;;;1.60;1.50;;;16.10;99.90;;;;;;4927959;29;20190;-78
2021/08/02 01:02:55;;;;;;;1.17;1.08;;;16.20;99.90;;;;;;4929156;29;20233;-78
2021/08/02 01:05:21;;;;;;;2.05;1.42;;;16.10;99.90;;;;;;4927516;29;20224;-78
2021/08/02 01:07:56;;;;;;;1.58;1.40;;;16.10;99.90;;;;;;4928223;29;20185;-77
2021/08/02 01:10:22;;;;;;;1.48;1.30;;;16.10;99.90;;;;;;4928468;29;20261;-79
2021/08/02 01:12:51;;;;;;;1.95;1.70;;;16.10;99.90;;;;;;4928970;29;20272;-79
2021/08/02 01:15:18;;;;;;;1.70;1.60;;;16.00;99.90;;;;;;4927505;29;20238;-77
2021/08/02 01:17:46;;;;;;;1.75;1.60;;;16.00;99.90;;;;;;4928646;29;20182;-77
2021/08/02 01:20:12;;;;;;;1.73;1.63;;;15.90;99.90;;;;;;4927953;29;20182;-79
2021/08/02 01:22:40;;;;;;;1.40;1.30;;;15.90;99.90;;;;;;4929035;29;20485;-78
2021/08/02 01:25:33;;;;;;;1.70;1.27;;;16.00;99.90;;;;;;4928939;29;20269;-78
2021/08/02 01:28:14;;;;;;;1.75;1.58;;;15.90;99.90;;;;;;4928974;29;20253;-78
2021/08/02 01:31:01;;;;;;;1.42;1.23;;;15.90;99.90;;;;;;4927386;29;20201;-79
2021/08/02 01:33:30;;;;;;;1.35;1.10;;;15.90;99.90;;;;;;4928418;29;20194;-78
2021/08/02 01:36:06;;;;;;;1.45;1.30;;;15.80;99.90;;;;;;4927489;29;20210;-78
2021/08/02 01:38:34;;;;;;;3.03;1.20;;;15.90;99.90;;;;;;4929149;29;20253;-77
2021/08/02 01:41:00;;;;;;;1.30;1.15;;;15.80;99.90;;;;;;4929149;29;20178;-78
2021/08/02 01:43:25;;;;;;;1.08;0.98;;;15.90;99.90;;;;;;4928467;29;20539;-78
2021/08/02 01:46:01;;;;;;;2.42;1.40;;;15.80;99.90;;;;;;4926918;29;20206;-79
2021/08/02 01:49:09;;;;;;;1.92;1.00;;;15.80;99.90;;;;;;4928296;29;20186;-76
2021/08/02 01:51:43;;;;;;;2.00;1.27;;;15.70;99.90;;;;;;4906756;29;20682;-76
2021/08/02 01:54:27;;;;;;;1.35;1.20;;;15.70;99.90;;;;;;4906767;29;20202;-79
2021/08/02 01:56:56;;;;;;;0.82;0.80;;;15.60;99.90;;;;;;4921422;29;20222;-78
2021/08/02 01:59:27;;;;;;;2.35;0.77;;;15.50;99.90;;;;;;4926640;29;20269;-79
2021/08/02 02:02:02;;;;;;;1.17;1.08;;;15.40;99.90;;;;;;4928470;29;20188;-77
2021/08/02 02:04:35;;;;;;;1.30;1.00;;;15.30;99.90;;;;;;4928035;29;20288;-79
2021/08/02 02:07:03;;;;;;;1.95;1.05;;;15.20;99.90;;;;;;4942828;29;20206;-78
2021/08/02 02:09:33;;;;;;;1.00;0.90;;;15.10;99.90;;;;;;4928112;29;20196;-79
2021/08/02 02:12:01;;;;;;;1.63;0.90;;;15.10;99.90;;;;;;4927061;29;20261;-78
2021/08/02 02:14:32;;;;;;;1.17;0.90;;;15.10;99.90;;;;;;4927557;29;20252;-79
2021/08/02 02:17:00;;;;;;;0.68;0.65;;;15.10;99.90;;;;;;4927927;29;20216;-79
2021/08/02 02:19:28;;;;;;;0.70;0.70;;;15.00;99.90;;;;;;4926772;29;20210;-77
2021/08/02 02:21:55;;;;;;;1.08;0.90;;;15.00;99.90;;;;;;4927983;29;20675;-77
2021/08/02 02:24:21;;;;;;;0.80;0.80;;;15.10;99.90;;;;;;4926584;29;20781;-79
2021/08/02 02:26:48;;;;;;;1.23;0.75;;;15.10;99.90;;;;;;4927835;29;20230;-78
2021/08/02 02:29:17;;;;;;;1.35;1.17;;;15.10;99.90;;;;;;4928025;29;20194;-77
2021/08/02 02:31:46;;;;;;;2.05;1.10;;;15.20;99.90;;;;;;4926414;29;20249;-79
2021/08/02 02:34:14;;;;;;;1.15;0.88;;;15.20;99.90;;;;;;4926526;29;20208;-76
2021/08/02 02:36:41;;;;;;;0.98;0.90;;;15.30;99.90;;;;;;4927949;29;20209;-79
2021/08/02 02:39:07;;;;;;;1.15;0.90;;;15.30;99.90;;;;;;4927640;29;20579;-78
2021/08/02 02:41:34;;;;;;;2.25;1.13;;;15.40;99.90;;;;;;4927496;29;20194;-77
2021/08/02 02:44:02;;;;;;;0.80;0.80;;;15.30;99.90;;;;;;4927576;29;20174;-78
2021/08/02 02:46:28;;;;;;;1.63;1.10;;;15.40;99.90;;;;;;4926975;29;20214;-77
2021/08/02 02:48:56;;;;;;;1.42;1.10;;;15.40;99.90;;;;;;4927712;29;20269;-76
2021/08/02 02:51:25;;;;;;;1.17;0.90;;;15.40;99.90;;;;;;4926712;29;20261;-78
2021/08/02 02:53:51;;;;;;;0.95;0.90;;;15.40;99.90;;;;;;4927646;29;20742;-77
2021/08/02 02:56:18;;;;;;;0.80;0.80;;;15.40;99.90;;;;;;4927705;29;20241;-78
2021/08/02 02:58:44;;;;;;;1.13;1.00;;;15.30;99.90;;;;;;4927251;29;20217;-78
2021/08/02 03:01:14;;;;;;;1.10;0.90;;;15.30;99.90;;;;;;4926174;29;20183;-77
2021/08/02 03:03:43;;;;;;;2.05;0.85;;;15.30;99.90;;;;;;4927044;29;20186;-76
2021/08/02 03:06:08;;;;;;;0.75;0.70;;;15.20;99.90;;;;;;4927407;29;20220;-78
2021/08/02 03:08:37;;;;;;;1.00;0.88;;;15.20;99.90;;;;;;4927741;29;20209;-79
2021/08/02 03:11:05;;;;;;;0.80;0.80;;;15.10;99.90;;;;;;4927779;29;20624;-78
2021/08/02 03:13:31;;;;;;;1.73;1.02;;;15.10;99.90;;;;;;4927451;29;20568;-77
2021/08/02 03:15:57;;;;;;;1.10;1.00;;;15.10;99.90;;;;;;4927126;29;20206;-78
2021/08/02 03:18:23;;;;;;;1.05;0.95;;;15.10;99.90;;;;;;4927842;29;20288;-78
2021/08/02 03:20:49;;;;;;;2.10;1.10;;;15.10;99.90;;;;;;4927385;29;20190;-76
2021/08/02 03:23:31;;;;;;;2.03;1.10;;;15.00;99.90;;;;;;4927269;29;20225;-78
2021/08/02 03:26:13;;;;;;;1.83;1.10;;;15.10;99.90;;;;;;4927327;29;20286;-79
2021/08/02 03:28:55;;;;;;;2.45;0.95;;;14.90;99.90;;;;;;4925815;29;20198;-78
2021/08/02 03:31:24;;;;;;;1.45;0.93;;;14.80;99.90;;;;;;4927151;29;20193;-77
2021/08/02 03:33:52;;;;;;;1.25;1.05;;;14.80;99.90;;;;;;4928578;29;20182;-79
2021/08/02 03:36:18;;;;;;;1.05;0.82;;;14.70;99.90;;;;;;4928237;29;20572;-80
2021/08/02 03:38:49;;;;;;;1.17;0.95;;;14.60;99.90;;;;;;4926428;29;20221;-78
2021/08/02 03:41:16;;;;;;;4.97;1.35;;;14.50;99.90;;;;;;4926450;29;20556;-79
2021/08/02 03:43:43;;;;;;;2.28;1.40;;;14.50;99.90;;;;;;4926637;29;20178;-78
2021/08/02 03:46:10;;;;;;;1.75;1.00;;;14.50;99.90;;;;;;4926887;29;20232;-78
2021/08/02 03:48:36;;;;;;;1.40;0.93;;;14.40;99.90;;;;;;4926648;29;20354;-78
2021/08/02 03:51:03;;;;;;;2.28;1.25;;;14.40;99.90;;;;;;4927559;29;20186;-78
2021/08/02 03:53:41;;;;;;;1.85;1.35;;;14.40;99.90;;;;;;4926549;29;20676;-78
2021/08/02 03:56:08;;;;;;;2.85;1.10;;;14.40;99.90;;;;;;4926528;29;20611;-78
2021/08/02 03:58:33;;;;;;;1.00;0.90;;;14.40;99.90;;;;;;4928535;29;20210;-78
2021/08/02 04:00:59;;;;;;;1.58;1.08;;;14.40;99.90;;;;;;4926719;29;20622;-78
2021/08/02 04:03:25;;;;;;;0.90;0.90;;;14.40;99.90;;;;;;4928248;29;20382;-78
2021/08/02 04:05:50;;;;;;;1.70;1.15;;;14.40;99.90;;;;;;4927844;29;20198;-78
2021/08/02 04:08:16;;;;;;;1.25;1.15;;;14.40;99.90;;;;;;4928243;29;20189;-78
2021/08/02 04:10:41;;;;;;;1.30;1.00;;;14.40;99.90;;;;;;4927945;29;20236;-78
2021/08/02 04:13:07;;;;;;;1.77;1.23;;;14.40;99.90;;;;;;4927954;29;20262;-78
2021/08/02 04:15:32;;;;;;;1.13;0.90;;;14.40;99.90;;;;;;4927641;29;20269;-78
2021/08/02 04:17:58;;;;;;;1.38;1.20;;;14.40;99.90;;;;;;4925348;29;20339;-78
2021/08/02 04:20:24;;;;;;;1.20;1.08;;;14.40;99.90;;;;;;4927895;29;20213;-78
2021/08/02 04:22:49;;;;;;;1.20;1.10;;;14.50;99.90;;;;;;4942102;28;20684;-78
2021/08/02 04:25:15;;;;;;;1.42;0.93;;;14.50;99.90;;;;;;4927303;29;20210;-78
2021/08/02 04:27:40;;;;;;;1.08;0.90;;;14.50;99.90;;;;;;4927406;29;20210;-78
2021/08/02 04:30:06;;;;;;;1.40;0.98;;;14.50;99.90;;;;;;4926304;29;20179;-78
2021/08/02 04:32:32;;;;;;;1.45;0.90;;;14.50;99.90;;;;;;4926921;29;20186;-78
2021/08/02 04:34:57;;;;;;;2.55;1.35;;;14.60;99.90;;;;;;4927202;29;20182;-78
2021/08/02 04:37:23;;;;;;;0.90;0.90;;;14.50;99.90;;;;;;4926611;29;20247;-78
2021/08/02 04:39:48;;;;;;;1.35;0.95;;;14.50;99.90;;;;;;4927186;29;20942;-78
2021/08/02 04:42:14;;;;;;;1.65;1.08;;;14.50;99.90;;;;;;4925608;29;20178;-79
2021/08/02 04:44:40;;;;;;;1.95;1.08;;;14.60;99.90;;;;;;4924557;29;20664;-78
2021/08/02 04:47:06;;;;;;;0.80;0.80;;;14.60;99.90;;;;;;4925505;29;20198;-78
2021/08/02 04:49:31;;;;;;;1.08;0.68;;;14.60;99.90;;;;;;4927233;29;20708;-79
2021/08/02 04:51:57;;;;;;;0.80;0.70;;;14.70;99.90;;;;;;4925957;29;20597;-78
2021/08/02 04:54:22;;;;;;;1.23;0.70;;;14.80;99.90;;;;;;4926773;29;20273;-78
2021/08/02 04:56:48;;;;;;;1.08;0.88;;;14.90;99.90;;;;;;4927082;29;20209;-78
2021/08/02 04:59:13;;;;;;;3.75;1.00;;;15.10;99.90;;;;;;4926822;29;20231;-78
2021/08/02 05:01:39;;;;;;;2.85;1.10;;;15.30;99.90;;;;;;4926823;29;20269;-78
2021/08/02 05:04:05;;;;;;;1.33;1.20;;;15.60;99.90;;;;;;4926352;29;20177;-78
2021/08/02 05:06:30;;;;;;;1.55;1.15;;;15.60;99.90;;;;;;4927304;29;20795;-79
2021/08/02 05:08:56;;;;;;;2.00;1.30;;;16.20;99.90;;;;;;4925344;29;20290;-78
2021/08/02 05:11:21;;;;;;;1.52;1.30;;;17.20;99.90;;;;;;4940849;29;20600;-78
2021/08/02 05:13:47;;;;;;;2.05;1.17;;;18.30;99.90;;;;;;4925893;29;20186;-78
2021/08/02 05:16:12;;;;;;;2.92;1.30;;;19.30;99.90;;;;;;4924792;29;20210;-78
2021/08/02 05:18:38;;;;;;;2.63;1.20;;;20.00;99.90;;;;;;4926210;29;20214;-78
2021/08/02 05:21:03;;;;;;;3.33;1.55;;;20.10;99.90;;;;;;4924714;29;20183;-79
2021/08/02 05:23:29;;;;;;;2.22;1.30;;;20.60;99.90;;;;;;4925059;29;20194;-79
2021/08/02 05:25:55;;;;;;;2.15;1.20;;;20.90;99.90;;;;;;4926313;29;20719;-79
2021/08/02 05:28:20;;;;;;;2.00;1.50;;;21.30;99.90;;;;;;4924684;29;20249;-79
2021/08/02 05:30:47;;;;;;;1.67;1.23;;;21.30;99.90;;;;;;4924465;29;20210;-78
2021/08/02 05:33:13;;;;;;;1.45;0.90;;;20.80;99.90;;;;;;4924453;29;20286;-80
2021/08/02 05:35:39;;;;;;;2.03;1.10;;;20.30;99.90;;;;;;4924141;29;20296;-79
2021/08/02 05:38:04;;;;;;;1.45;0.85;;;20.20;99.90;;;;;;4924432;29;20301;-79
2021/08/02 05:40:30;;;;;;;1.33;1.08;;;19.90;99.90;;;;;;4924099;29;20182;-79
2021/08/02 05:42:55;;;;;;;1.15;1.05;;;19.40;99.90;;;;;;4923909;29;20183;-78
2021/08/02 05:45:21;;;;;;;1.60;1.02;;;18.90;99.90;;;;;;4925376;29;20186;-79
2021/08/02 05:47:47;;;;;;;3.45;1.30;;;18.60;99.90;;;;;;4924667;29;20192;-78
2021/08/02 05:50:12;;;;;;;1.40;1.05;;;18.60;99.90;;;;;;4924541;29;21279;-78
2021/08/02 05:52:41;;;;;;;2.90;0.93;;;18.90;99.90;;;;;;4926044;29;21191;-78
2021/08/02 05:55:07;;;;;;;2.22;0.82;;;19.90;99.90;;;;;;4923728;29;20178;-79
2021/08/02 05:57:32;;;;;;;0.85;0.70;;;20.90;99.90;;;;;;4924941;29;20703;-78
2021/08/02 05:59:58;;;;;;;0.80;0.80;;;21.40;99.90;;;;;;4925154;29;20206;-79
2021/08/02 06:02:23;;;;;;;1.00;0.90;;;21.70;99.90;;;;;;4923989;29;20285;-79
2021/08/02 06:04:49;;;;;;;2.03;1.08;;;22.00;99.90;;;;;;4925292;29;20517;-78
2021/08/02 06:07:15;;;;;;;0.90;0.80;;;22.20;99.90;;;;;;4923922;29;20253;-79
2021/08/02 06:09:40;;;;;;;1.17;0.90;;;22.50;99.90;;;;;;4925216;29;20198;-79
2021/08/02 06:12:06;;;;;;;1.90;1.27;;;22.70;99.90;;;;;;4925711;29;20190;-79
2021/08/02 06:14:32;;;;;;;1.55;0.60;;;22.90;99.90;;;;;;4923191;29;20355;-79
2021/08/02 06:16:58;;;;;;;1.02;0.73;;;22.30;99.90;;;;;;4924507;29;20206;-78
2021/08/02 06:19:23;;;;;;;1.75;0.80;;;21.00;99.90;;;;;;4924303;29;20704;-78
2021/08/02 06:21:49;;;;;;;1.95;0.90;;;19.80;99.90;;;;;;4923927;29;20182;-78
2021/08/02 06:24:14;;;;;;;1.23;0.75;;;19.10;99.90;;;;;;4924985;29;20186;-78
2021/08/02 06:26:40;;;;;;;0.60;0.60;;;18.40;99.90;;;;;;4925285;29;20230;-79
2021/08/02 06:29:06;;;;;;;1.10;0.88;;;18.90;99.90;;;;;;4925126;29;20201;-80
2021/08/02 06:31:31;;;;;;;0.60;0.52;;;19.80;99.90;;;;;;4924757;29;20668;-79
2021/08/02 06:33:57;;;;;;;1.17;0.52;;;20.70;99.90;;;;;;4925828;29;20190;-79
2021/08/02 06:36:22;;;;;;;13.20;7.45;;;21.00;99.90;;;;;;4927644;29;20684;-78
2021/08/02 06:38:49;;;;;;;4.68;2.10;;;22.00;99.90;;;;;;4942525;29;20248;-79
2021/08/02 06:41:14;;;;;;;1.90;0.73;;;21.70;99.90;;;;;;4927794;29;20213;-78
2021/08/02 06:43:41;;;;;;;4.22;1.27;;;21.40;99.90;;;;;;4927845;29;20217;-78
2021/08/02 06:46:07;;;;;;;2.95;1.00;;;20.60;99.90;;;;;;4926283;29;20212;-78
2021/08/02 06:48:34;;;;;;;0.90;0.60;;;20.20;99.90;;;;;;4927854;29;20218;-79
2021/08/02 06:51:00;;;;;;;1.55;0.80;;;19.80;99.90;;;;;;4926502;29;20695;-76
2021/08/02 06:53:25;;;;;;;2.85;0.82;;;19.60;99.90;;;;;;4927702;29;20521;-77
2021/08/02 06:55:51;;;;;;;1.05;0.88;;;19.00;99.90;;;;;;4925444;29;20729;-77
2021/08/02 06:58:17;;;;;;;1.23;0.70;;;18.70;99.90;;;;;;4924536;29;20210;-78
2021/08/02 07:00:42;;;;;;;0.85;0.60;;;18.70;99.90;;;;;;4925281;29;20263;-77
2021/08/02 07:03:09;;;;;;;1.58;0.55;;;18.60;99.90;;;;;;4924591;29;20265;-76
2021/08/02 07:05:36;;;;;;;1.10;0.82;;;18.70;99.90;;;;;;4924416;29;20188;-77
2021/08/02 07:08:02;;;;;;;0.82;0.47;;;18.80;99.90;;;;;;4924715;29;20209;-77
2021/08/02 07:10:27;;;;;;;0.47;0.47;;;18.60;99.90;;;;;;4926238;29;20599;-77
2021/08/02 07:12:53;;;;;;;2.10;0.80;;;18.50;99.90;;;;;;4928307;29;20214;-77
2021/08/02 07:15:19;;;;;;;0.88;0.73;;;18.80;99.90;;;;;;4928251;29;20190;-77
2021/08/02 07:17:44;;;;;;;1.65;0.45;;;19.10;99.90;;;;;;4928336;29;20629;-77
2021/08/02 07:20:10;;;;;;;0.80;0.70;;;19.10;99.90;;;;;;4928056;29;20245;-77
2021/08/02 07:22:36;;;;;;;1.60;0.63;;;18.90;99.90;;;;;;4928038;29;20665;-77
2021/08/02 07:25:03;;;;;;;0.65;0.60;;;19.00;99.90;;;;;;4928220;29;20301;-78
2021/08/02 07:27:29;;;;;;;0.88;0.88;;;19.20;99.90;;;;;;4928008;29;20257;-77
2021/08/02 07:29:54;;;;;;;0.52;0.50;;;19.10;99.90;;;;;;4927767;29;20641;-77
2021/08/02 07:32:20;;;;;;;0.30;0.30;;;19.10;99.90;;;;;;4927428;29;20182;-77
2021/08/02 07:34:45;;;;;;;0.70;0.43;;;19.40;99.90;;;;;;4927544;29;20676;-77
2021/08/02 07:37:11;;;;;;;0.63;0.50;;;19.80;99.90;;;;;;4927837;29;20210;-77
2021/08/02 07:39:36;;;;;;;0.68;0.60;;;19.80;99.90;;;;;;4927839;29;20214;-77
2021/08/02 07:42:03;;;;;;;2.47;0.80;;;19.30;99.90;;;;;;4928039;29;20213;-77
2021/08/02 07:44:29;;;;;;;0.90;0.70;;;19.10;99.90;;;;;;4928095;29;20846;-77
2021/08/02 07:46:54;;;;;;;0.75;0.52;;;19.30;99.90;;;;;;4928303;29;20943;-78
2021/08/02 07:49:20;;;;;;;1.75;0.77;;;19.50;99.90;;;;;;4928747;29;20961;-78
2021/08/02 07:51:45;;;;;;;0.93;0.80;;;19.70;99.90;;;;;;4928438;29;20217;-77
2021/08/02 07:54:11;;;;;;;1.52;1.13;;;19.80;99.90;;;;;;4925889;29;20245;-78
2021/08/02 07:56:38;;;;;;;0.75;0.50;;;19.80;99.90;;;;;;4927730;29;20289;-78
2021/08/02 07:59:04;;;;;;;0.30;0.30;;;20.00;99.90;;;;;;4928093;29;20563;-78
2021/08/02 08:01:30;;;;;;;0.95;0.50;;;20.20;99.90;;;;;;4927897;29;20221;-78
2021/08/02 08:03:56;;;;;;;0.68;0.60;;;19.80;99.90;;;;;;4927542;29;20257;-77
2021/08/02 08:06:21;;;;;;;0.30;0.30;;;19.50;99.90;;;;;;4925943;29;20209;-78
2021/08/02 08:08:47;;;;;;;0.35;0.30;;;19.40;99.90;;;;;;4927428;29;20221;-77
2021/08/02 08:11:13;;;;;;;0.80;0.52;;;19.50;99.90;;;;;;4925980;29;20194;-77
2021/08/02 08:13:39;;;;;;;1.42;0.63;;;19.40;99.90;;;;;;4927434;29;20700;-77
2021/08/02 08:16:05;;;;;;;1.20;0.60;;;19.40;99.90;;;;;;4927626;29;20455;-77
2021/08/02 08:18:31;;;;;;;0.95;0.50;;;19.70;99.90;;;;;;4927760;29;20210;-77
2021/08/02 08:20:59;;;;;;;0.55;0.35;;;20.00;99.90;;;;;;4925639;29;20186;-78
2021/08/02 08:23:25;;;;;;;0.52;0.45;;;20.40;99.90;;;;;;4925215;29;20209;-77
2021/08/02 08:25:51;;;;;;;0.40;0.40;;;20.90;99.90;;;;;;4927119;29;20202;-77
2021/08/02 08:28:16;;;;;;;0.52;0.30;;;20.80;99.90;;;;;;4927520;29;20190;-77
2021/08/02 08:30:42;;;;;;;0.50;0.50;;;20.20;99.90;;;;;;4926788;29;20187;-77
2021/08/02 08:33:08;;;;;;;0.95;0.40;;;19.80;99.90;;;;;;4925128;29;20602;-77
2021/08/02 08:35:37;;;;;;;0.70;0.43;;;19.90;99.90;;;;;;4924997;29;20229;-78
2021/08/02 08:38:03;;;;;;;1.05;0.68;;;20.40;99.90;;;;;;4925054;29;20194;-77
2021/08/02 08:40:29;;;;;;;1.17;0.50;;;20.50;99.90;;;;;;4922798;29;20261;-77
2021/08/02 08:42:55;;;;;;;1.17;0.38;;;20.60;99.90;;;;;;4924903;29;20284;-77
2021/08/02 08:45:21;;;;;;;0.68;0.68;;;20.90;99.90;;;;;;4925074;29;20194;-77
2021/08/02 08:47:48;;;;;;;0.68;0.63;;;20.90;99.90;;;;;;4926273;29;20195;-78
2021/08/02 08:50:14;;;;;;;0.77;0.63;;;21.10;99.90;;;;;;4926805;29;20206;-77
2021/08/02 08:52:40;;;;;;;0.40;0.30;;;20.90;99.90;;;;;;4926200;29;20179;-77
2021/08/02 08:55:07;;;;;;;0.88;0.40;;;20.60;99.90;;;;;;4925929;29;20242;-77
2021/08/02 08:57:33;;;;;;;5.07;0.90;;;21.00;99.90;;;;;;4926490;29;20206;-77
2021/08/02 08:59:58;;;;;;;0.45;0.30;;;21.20;99.90;;;;;;4926220;29;20222;-78
2021/08/02 09:02:29;;;;;;;0.32;0.32;;;21.60;99.90;;;;;;4926711;29;20198;-78
2021/08/02 09:04:57;;;;;;;1.40;0.40;;;21.50;99.90;;;;;;4927947;29;20675;-77
2021/08/02 09:07:32;;;;;;;1.13;0.60;;;21.00;99.90;;;;;;4926140;29;20289;-77
2021/08/02 09:09:59;;;;;;;1.13;0.30;;;21.00;99.90;;;;;;4926266;29;20200;-77
2021/08/02 09:12:25;;;;;;;1.58;0.43;;;21.30;99.90;;;;;;4926261;29;20671;-78
2021/08/02 09:15:00;;;;;;;2.05;0.63;;;21.40;99.90;;;;;;4924249;29;20221;-77
2021/08/02 09:17:45;;;;;;;0.60;0.50;;;21.60;99.90;;;;;;4924466;29;20209;-77
2021/08/02 09:20:20;;;;;;;0.73;0.32;;;21.60;99.90;;;;;;4924679;29;20205;-77
2021/08/02 09:22:46;;;;;;;0.82;0.40;;;21.00;99.90;;;;;;4925206;29;20182;-77
2021/08/02 09:25:21;;;;;;;0.88;0.60;;;20.70;99.90;;;;;;4926204;29;20653;-77
2021/08/02 09:27:50;;;;;;;0.43;0.40;;;20.50;99.90;;;;;;4924198;29;20193;-77
2021/08/02 09:30:24;;;;;;;0.40;0.30;;;20.60;99.90;;;;;;4925315;29;20242;-77
2021/08/02 09:32:55;;;;;;;1.65;0.70;;;20.60;99.90;;;;;;4924938;29;20214;-77
2021/08/02 09:35:39;;;;;;;0.75;0.40;;;20.70;99.90;;;;;;4925815;29;20230;-77
2021/08/02 09:38:10;;;;;;;1.33;0.50;;;20.80;99.90;;;;;;4924114;29;20198;-77
2021/08/02 09:40:41;;;;;;;0.40;0.40;;;20.80;99.90;;;;;;4926550;29;20186;-77
2021/08/02 09:43:13;;;;;;;2.17;0.47;;;21.00;99.90;;;;;;4928936;29;20253;-77
2021/08/02 09:45:50;;;;;;;0.70;0.40;;;21.20;99.90;;;;;;4923914;29;20565;-78
2021/08/02 09:48:18;;;;;;;1.33;0.40;;;21.30;99.90;;;;;;4925468;29;20186;-77
2021/08/02 09:50:45;;;;;;;1.13;0.68;;;21.10;99.90;;;;;;4923990;29;20185;-78
2021/08/02 09:53:19;;;;;;;1.83;0.70;;;21.30;99.90;;;;;;4925727;29;20763;-77
2021/08/02 09:55:46;;;;;;;2.05;0.57;;;21.90;99.90;;;;;;4925082;29;20447;-77
2021/08/02 09:58:21;;;;;;;0.50;0.50;;;22.20;99.90;;;;;;4925260;29;20202;-78
2021/08/02 10:00:46;;;;;;;0.60;0.52;;;22.70;99.90;;;;;;4925359;29;20313;-77
2021/08/02 10:03:14;;;;;;;1.55;0.60;;;22.90;99.90;;;;;;4925026;29;20261;-77
2021/08/02 10:05:41;;;;;;;2.28;0.50;;;23.10;99.90;;;;;;4922222;29;20214;-78
2021/08/02 10:08:07;;;;;;;0.30;0.30;;;22.80;99.90;;;;;;4923196;29;20178;-80
2021/08/02 10:10:36;;;;;;;0.50;0.50;;;22.90;99.90;;;;;;4923007;29;20609;-78
2021/08/02 10:13:02;;;;;;;2.50;0.60;;;23.00;99.90;;;;;;4922720;29;20182;-78
2021/08/02 10:15:29;;;;;;;3.05;0.40;;;22.90;99.90;;;;;;4922408;29;20182;-78
2021/08/02 10:17:57;;;;;;;0.50;0.50;;;22.90;99.90;;;;;;4923967;29;20983;-78
2021/08/02 10:20:33;;;;;;;1.52;0.57;;;23.10;99.90;;;;;;4924763;29;20693;-78
2021/08/02 10:23:01;;;;;;;0.40;0.40;;;23.20;99.90;;;;;;4925676;29;20182;-78
2021/08/02 10:25:38;;;;;;;1.33;0.40;;;23.20;99.90;;;;;;4923825;29;20213;-78
2021/08/02 10:28:15;;;;;;;0.68;0.43;;;23.10;99.90;;;;;;4923923;29;20245;-78
2021/08/02 10:30:44;;;;;;;0.55;0.15;;;22.90;99.90;;;;;;4924118;29;20192;-78
2021/08/02 10:33:10;;;;;;;1.23;0.40;;;22.40;99.90;;;;;;4925190;29;20668;-78
2021/08/02 10:35:35;;;;;;;0.55;0.30;;;22.40;99.90;;;;;;4925752;29;20196;-77
2021/08/02 10:38:05;;;;;;;0.30;0.30;;;22.30;99.90;;;;;;4924088;29;20213;-78
2021/08/02 10:40:46;;;;;;;0.43;0.22;;;22.30;99.90;;;;;;4925510;29;20197;-78
2021/08/02 10:43:11;;;;;;;0.17;0.17;;;22.30;99.90;;;;;;4925342;29;20182;-78
2021/08/02 10:45:46;;;;;;;0.68;0.50;;;22.10;99.90;;;;;;4927354;29;20540;-79
2021/08/02 10:48:21;;;;;;;0.95;0.68;;;22.00;99.90;;;;;;4929395;29;20651;-78
2021/08/02 10:50:48;;;;;;;0.43;0.30;;;21.90;99.90;;;;;;4929607;29;20233;-78
2021/08/02 10:53:17;;;;;;;0.50;0.30;;;21.80;99.90;;;;;;4927338;29;20188;-78
2021/08/02 10:55:52;;;;;;;0.40;0.30;;;21.70;99.90;;;;;;4928277;29;20312;-77
2021/08/02 10:58:38;;;;;;;0.25;0.20;;;21.40;99.90;;;;;;4929527;29;20210;-78
2021/08/02 11:01:06;;;;;;;1.15;0.60;;;21.60;99.90;;;;;;4926721;29;20637;-77
2021/08/02 11:03:36;;;;;;;0.20;0.20;;;21.60;99.90;;;;;;4926543;29;20276;-78
2021/08/02 11:06:13;;;;;;;0.52;0.20;;;21.60;99.90;;;;;;4927498;29;20213;-78
2021/08/02 11:08:54;;;;;;;0.30;0.30;;;21.90;99.90;;;;;;4927806;29;20253;-77
2021/08/02 11:11:20;;;;;;;1.95;0.50;;;21.70;99.90;;;;;;4942101;29;20248;-78
2021/08/02 11:13:46;;;;;;;0.55;0.30;;;21.70;99.90;;;;;;4926211;29;20217;-77
2021/08/02 11:16:12;;;;;;;0.20;0.20;;;21.90;99.90;;;;;;4928257;29;20241;-76
2021/08/02 11:18:42;;;;;;;0.57;0.40;;;22.20;99.90;;;;;;4928736;29;20630;-77
2021/08/02 11:21:08;;;;;;;0.65;0.30;;;22.30;99.90;;;;;;4927429;29;20182;-77
2021/08/02 11:23:35;;;;;;;0.93;0.30;;;22.80;99.90;;;;;;4928573;29;20242;-78
2021/08/02 11:26:09;;;;;;;0.25;0.25;;;23.40;99.90;;;;;;4928222;29;20631;-77
2021/08/02 11:28:43;;;;;;;2.42;0.30;;;23.60;99.90;;;;;;4927548;29;20562;-77
2021/08/02 11:31:10;;;;;;;2.50;0.38;;;23.80;99.90;;;;;;4927204;29;20179;-78
2021/08/02 11:33:37;;;;;;;0.50;0.30;;;23.60;99.90;;;;;;4926678;29;20194;-78
2021/08/02 11:36:04;;;;;;;0.30;0.30;;;23.80;99.90;;;;;;4927813;29;20627;-77
2021/08/02 11:38:38;;;;;;;1.88;0.85;;;23.60;99.90;;;;;;4928386;29;20704;-78
2021/08/02 11:41:04;;;;;;;0.32;0.32;;;23.80;99.90;;;;;;4927894;29;20237;-77
2021/08/02 11:43:44;;;;;;;0.40;0.40;;;23.70;99.90;;;;;;4926534;29;20201;-78
2021/08/02 11:46:12;;;;;;;0.52;0.30;;;24.10;99.90;;;;;;4927896;29;20659;-78
2021/08/02 11:48:42;;;;;;;0.52;0.52;;;24.40;99.80;;;;;;4928035;29;20236;-78
2021/08/02 11:51:10;;;;;;;0.95;0.50;;;24.60;99.10;;;;;;4928114;29;20597;-78
2021/08/02 11:53:36;;;;;;;1.33;0.47;;;24.30;97.90;;;;;;4926460;29;20201;-78
2021/08/02 11:56:03;;;;;;;0.88;0.38;;;24.10;96.70;;;;;;4926958;29;20373;-78
2021/08/02 11:58:46;;;;;;;1.48;0.40;;;24.10;97.30;;;;;;4928181;29;20308;-77
2021/08/02 12:01:13;;;;;;;0.40;0.25;;;24.00;97.20;;;;;;4927545;29;20186;-78
2021/08/02 12:03:44;;;;;;;0.80;0.35;;;24.00;97.00;;;;;;4927766;29;20186;-78
2021/08/02 12:06:10;;;;;;;0.40;0.40;;;23.90;96.70;;;;;;4927539;29;20230;-77
2021/08/02 12:08:46;;;;;;;0.50;0.35;;;24.10;96.30;;;;;;4927357;29;20227;-78
2021/08/02 12:11:13;;;;;;;0.43;0.40;;;24.20;96.60;;;;;;4927656;29;20201;-78
2021/08/02 12:13:49;;;;;;;0.38;0.38;;;24.60;95.70;;;;;;4926799;29;20285;-78
2021/08/02 12:16:33;;;;;;;0.40;0.40;;;24.40;95.70;;;;;;4926803;29;20205;-78
2021/08/02 12:19:10;;;;;;;0.40;0.40;;;24.50;95.60;;;;;;4927004;29;20202;-77
2021/08/02 12:21:37;;;;;;;0.50;0.45;;;24.60;96.20;;;;;;4927486;29;20182;-78
2021/08/02 12:24:09;;;;;;;0.63;0.40;;;24.90;95.60;;;;;;4927288;29;20178;-78
2021/08/02 12:26:50;;;;;;;1.20;0.38;;;25.20;94.90;;;;;;4928048;29;20206;-78
2021/08/02 12:29:23;;;;;;;0.32;0.30;;;25.60;94.00;;;;;;4929793;29;20269;-76
2021/08/02 12:31:54;;;;;;;0.43;0.40;;;25.20;93.50;;;;;;4925842;29;20182;-77
2021/08/02 12:34:20;;;;;;;0.82;0.43;;;24.70;93.90;;;;;;4927048;29;20189;-78
2021/08/02 12:36:45;;;;;;;0.77;0.25;;;24.40;94.70;;;;;;4925654;29;20210;-77
2021/08/02 12:39:11;;;;;;;0.22;0.22;;;24.00;95.10;;;;;;4927075;29;20225;-77
2021/08/02 12:41:38;;;;;;;0.30;0.30;;;23.70;96.30;;;;;;4927550;29;20862;-77
2021/08/02 12:44:03;;;;;;;1.30;0.40;;;23.40;96.00;;;;;;4925725;29;20210;-77
2021/08/02 12:46:29;;;;;;;0.40;0.40;;;23.50;97.50;;;;;;4926686;29;20230;-78
2021/08/02 12:48:55;;;;;;;0.30;0.30;;;23.30;97.20;;;;;;4924807;29;20540;-76
2021/08/02 12:51:22;;;;;;;0.65;0.52;;;23.70;96.80;;;;;;4925531;29;20191;-77
2021/08/02 12:53:48;;;;;;;0.30;0.30;;;23.70;95.70;;;;;;4925345;29;20182;-77
2021/08/02 12:56:14;;;;;;;0.40;0.28;;;23.40;96.30;;;;;;4925510;29;20222;-78